Mesa.AZweather.com - Mesa, AZ
   Red Mountain Frwy and University Dr., El 1518 ft.
        --- Sunday  Sep. 8, 2019 ---
 
 High Temperature ..  99F at 14:12
 Low Temperature ...  82F at 05:54
 
 High Humidity .....  48% at 06:37
 Low Humidity ......  28% at 18:04
 
 Rainfall Total ....  0.00 in.
 
 High Wind Speed ... ---
                     
 
 High Barometer ....  29.87 at 07:41
 Low Barometer .....  29.71 at 17:43
 
Dew Point    High .... 65   Low ..... 55
 
 
 Time   Temp  Humi  Rain     Baro  DewPt  Wind
00:00,  89F, 37%, 0.00 in, 29.85, 60F, ---
00:30,  88F, 39%, 0.00 in, 29.85, 60F, ---
01:00,  87F, 40%, 0.00 in, 29.85, 60F, ---
01:30,  86F, 41%, 0.00 in, 29.83, 60F, ---
02:00,  85F, 42%, 0.00 in, 29.83, 59F, ---
02:30,  85F, 42%, 0.00 in, 29.82, 59F, ---
03:00,  84F, 42%, 0.00 in, 29.83, 59F, ---
03:30,  83F, 43%, 0.00 in, 29.83, 58F, ---
04:00,  83F, 44%, 0.00 in, 29.84, 58F, ---
04:30,  84F, 44%, 0.00 in, 29.85, 60F, ---
05:00,  84F, 44%, 0.00 in, 29.85, 60F, ---
05:30,  83F, 44%, 0.00 in, 29.85, 58F, ---
06:00,  82F, 45%, 0.00 in, 29.84, 59F, ---
06:30,  82F, 47%, 0.00 in, 29.86, 60F, ---
07:00,  83F, 48%, 0.00 in, 29.86, 61F, ---
07:30,  84F, 48%, 0.00 in, 29.86, 62F, ---
08:00,  86F, 47%, 0.00 in, 29.86, 63F, ---
08:30,  88F, 45%, 0.00 in, 29.86, 64F, ---
09:00,  89F, 42%, 0.00 in, 29.86, 63F, ---
09:30,  90F, 40%, 0.00 in, 29.86, 62F, ---
10:00,  92F, 38%, 0.00 in, 29.86, 62F, ---
10:30,  94F, 37%, 0.00 in, 29.84, 63F, ---
11:00,  95F, 35%, 0.00 in, 29.84, 63F, ---
11:30,  95F, 35%, 0.00 in, 29.83, 63F, ---
12:00,  96F, 35%, 0.00 in, 29.82, 65F, ---
12:30,  96F, 32%, 0.00 in, 29.82, 62F, ---
13:00,  97F, 33%, 0.00 in, 29.80, 63F, ---
13:30,  96F, 35%, 0.00 in, 29.79, 65F, ---
14:00,  98F, 33%, 0.00 in, 29.78, 64F, ---
14:30,  98F, 33%, 0.00 in, 29.76, 64F, ---
15:00,  99F, 32%, 0.00 in, 29.74, 64F, ---
15:30,  97F, 32%, 0.00 in, 29.74, 62F, ---
16:00,  96F, 34%, 0.00 in, 29.73, 64F, ---
16:30,  97F, 33%, 0.00 in, 29.72, 63F, ---
17:00,  96F, 33%, 0.00 in, 29.72, 63F, ---
17:30,  95F, 34%, 0.00 in, 29.72, 62F, ---
18:00,  96F, 31%, 0.00 in, 29.71, 61F, ---
18:30,  95F, 28%, 0.00 in, 29.72, 57F, ---
19:00,  93F, 30%, 0.00 in, 29.73, 57F, ---
19:30,  92F, 31%, 0.00 in, 29.74, 57F, ---
20:00,  91F, 33%, 0.00 in, 29.75, 58F, ---
20:30,  91F, 34%, 0.00 in, 29.76, 59F, ---
21:00,  91F, 35%, 0.00 in, 29.77, 60F, ---
21:30,  90F, 35%, 0.00 in, 29.77, 58F, ---
22:00,  89F, 36%, 0.00 in, 29.79, 59F, ---
22:30,  87F, 38%, 0.00 in, 29.79, 59F, ---
23:00,  87F, 39%, 0.00 in, 29.80, 60F, ---
23:30,  86F, 38%, 0.00 in, 29.80, 57F, ---
23:59,  84F, 40%, 0.00 in, 29.80, 57F, ---